Time;durP1;ratioP1;P1;durP2;ratioP2;P2;SDS_P1;SDS_P2;PMS_P1;PMS_P2;Temp;Humidity;BMP_temperature;BMP_pressure;BME280_temperature;BME280_humidity;BME280_pressure;Samples;Min_cycle;Max_cycle;Signal;HPM_P1;HPM_P2
2021/01/30 00:01:40;;;;;;;30.80;13.93;;;-4.60;99.90;;;;;;5024959;28;20053;-84
2021/01/30 00:04:06;;;;;;;28.95;13.80;;;-4.70;99.90;;;;;;5009007;28;20026;-85
2021/01/30 00:06:31;;;;;;;26.95;13.88;;;-4.70;99.90;;;;;;5026279;28;20026;-84
2021/01/30 00:08:59;;;;;;;32.03;14.50;;;-4.70;99.90;;;;;;5025587;28;20026;-86
2021/01/30 00:11:25;;;;;;;30.98;14.48;;;-4.80;99.90;;;;;;5027979;28;20017;-87
2021/01/30 00:13:50;;;;;;;30.17;13.93;;;-4.80;99.90;;;;;;5026804;28;20018;-87
2021/01/30 00:16:16;;;;;;;34.17;12.80;;;-4.80;99.90;;;;;;5011192;28;20030;-86
2021/01/30 00:18:42;;;;;;;25.77;13.15;;;-4.80;99.90;;;;;;5026059;28;20025;-86
2021/01/30 00:21:10;;;;;;;25.67;12.98;;;-4.90;99.90;;;;;;5025588;28;20037;-85
2021/01/30 00:23:36;;;;;;;25.60;12.40;;;-4.90;99.90;;;;;;5025522;28;20079;-84
2021/01/30 00:26:02;;;;;;;26.88;12.25;;;-4.90;99.90;;;;;;5028042;28;20022;-86
2021/01/30 00:28:28;;;;;;;27.58;12.13;;;-4.90;99.90;;;;;;5003950;28;20025;-81
2021/01/30 00:30:54;;;;;;;23.92;12.48;;;-4.90;99.90;;;;;;5017443;28;20587;-87
2021/01/30 00:33:19;;;;;;;27.55;12.60;;;-4.90;99.90;;;;;;5016941;28;20022;-86
2021/01/30 00:35:45;;;;;;;26.02;12.98;;;-4.90;99.90;;;;;;5016095;28;20039;-78
2021/01/30 00:38:11;;;;;;;26.98;12.63;;;-4.90;99.90;;;;;;4995444;28;20060;-78
2021/01/30 00:40:37;;;;;;;22.58;12.38;;;-4.80;99.90;;;;;;5014105;28;20079;-77
2021/01/30 00:43:04;;;;;;;24.80;11.88;;;-4.70;99.90;;;;;;5013934;28;20030;-77
2021/01/30 00:45:31;;;;;;;26.90;12.00;;;-4.70;99.90;;;;;;5015359;28;20025;-87
2021/01/30 00:47:57;;;;;;;21.38;11.35;;;-4.60;99.90;;;;;;5016972;28;20033;-86
2021/01/30 00:50:23;;;;;;;22.48;11.10;;;-4.60;99.90;;;;;;5016149;28;20080;-76
2021/01/30 00:52:49;;;;;;;21.10;11.38;;;-4.60;99.90;;;;;;4996464;28;20032;-76
2021/01/30 00:55:19;;;;;;;23.98;11.57;;;-4.50;99.90;;;;;;4996280;28;20026;-76
2021/01/30 00:57:45;;;;;;;23.85;11.70;;;-4.60;99.90;;;;;;4996017;28;20040;-75
2021/01/30 01:00:20;;;;;;;26.20;12.43;;;-4.60;99.90;;;;;;5013663;28;20036;-75
2021/01/30 01:02:46;;;;;;;22.88;11.85;;;-4.70;99.90;;;;;;4996263;28;20441;-76
2021/01/30 01:05:14;;;;;;;26.67;13.18;;;-4.70;99.90;;;;;;5013488;28;20061;-76
2021/01/30 01:07:42;;;;;;;25.63;12.43;;;-4.80;99.90;;;;;;5013751;28;20026;-76
2021/01/30 01:10:08;;;;;;;24.00;12.45;;;-4.90;99.90;;;;;;4996255;28;20022;-78
2021/01/30 01:12:34;;;;;;;22.10;11.68;;;-4.90;99.90;;;;;;5013954;28;20473;-78
2021/01/30 01:14:59;;;;;;;22.45;11.82;;;-5.00;99.90;;;;;;5013580;28;20018;-77
2021/01/30 01:17:25;;;;;;;26.73;12.20;;;-5.00;99.90;;;;;;4995967;28;20032;-77
2021/01/30 01:19:51;;;;;;;27.17;12.82;;;-5.00;99.90;;;;;;5013343;28;20101;-76
2021/01/30 01:22:16;;;;;;;32.78;13.73;;;-5.00;99.90;;;;;;5013224;28;20375;-76
2021/01/30 01:24:42;;;;;;;29.05;14.15;;;-5.10;99.90;;;;;;4995873;28;20077;-77
2021/01/30 01:27:08;;;;;;;34.45;15.73;;;-5.10;99.90;;;;;;4996459;28;20084;-89
2021/01/30 01:29:33;;;;;;;31.80;15.60;;;-5.10;99.90;;;;;;5016682;28;20030;-90
2021/01/30 01:31:59;;;;;;;33.53;16.05;;;-5.20;99.90;;;;;;5016586;28;20014;-89
2021/01/30 01:34:27;;;;;;;29.10;14.25;;;-5.20;99.90;;;;;;4999226;28;20526;-88
2021/01/30 01:36:58;;;;;;;31.90;14.25;;;-5.20;99.90;;;;;;5014534;28;20121;-77
2021/01/30 01:39:25;;;;;;;34.25;15.68;;;-5.20;99.90;;;;;;4995365;28;20056;-75
2021/01/30 01:42:08;;;;;;;37.53;17.50;;;-5.30;99.90;;;;;;4995229;28;20499;-76
2021/01/30 01:44:34;;;;;;;37.28;16.92;;;-5.30;99.90;;;;;;5012989;28;20026;-76
2021/01/30 01:47:00;;;;;;;39.85;19.00;;;-5.30;99.90;;;;;;5012774;28;20026;-76
2021/01/30 01:49:33;;;;;;;43.25;20.20;;;-5.30;99.90;;;;;;4996718;28;20033;-87
2021/01/30 01:52:22;;;;;;;48.58;20.35;;;-5.40;99.90;;;;;;5015024;28;20510;-88
2021/01/30 01:54:55;;;;;;;42.90;20.90;;;-5.40;99.90;;;;;;5015155;28;20018;-87
2021/01/30 01:57:21;;;;;;;52.90;23.45;;;-5.40;99.90;;;;;;5015379;28;20484;-87
2021/01/30 01:59:52;;;;;;;49.38;23.33;;;-5.40;99.90;;;;;;5015122;28;20045;-87
2021/01/30 02:02:18;;;;;;;57.80;26.48;;;-5.50;99.90;;;;;;5015078;28;20022;-87
2021/01/30 02:05:03;;;;;;;67.47;29.58;;;-5.50;99.90;;;;;;5015096;28;20021;-86
2021/01/30 02:07:30;;;;;;;61.03;26.17;;;-5.50;99.90;;;;;;4997758;28;20030;-87
2021/01/30 02:09:58;;;;;;;62.00;27.25;;;-5.50;99.90;;;;;;5015651;28;20080;-87
2021/01/30 02:12:26;;;;;;;56.30;25.38;;;-5.50;99.90;;;;;;4997895;28;20029;-87
2021/01/30 02:14:54;;;;;;;66.72;27.17;;;-5.60;99.90;;;;;;4997791;28;20018;-87
2021/01/30 02:17:25;;;;;;;60.08;24.95;;;-5.60;99.90;;;;;;5014392;28;20017;-89
2021/01/30 02:20:19;;;;;;;49.95;22.00;;;-5.60;99.90;;;;;;4997024;28;20048;-76
2021/01/30 02:23:06;;;;;;;54.67;23.27;;;-5.60;99.90;;;;;;5012331;28;20028;-76
2021/01/30 02:25:53;;;;;;;51.63;22.83;;;-5.60;99.90;;;;;;4994570;28;20036;-76
2021/01/30 02:28:53;;;;;;;49.58;22.48;;;-5.70;99.90;;;;;;5012328;28;20022;-76
2021/01/30 02:31:53;;;;;;;47.55;23.13;;;-5.70;99.90;;;;;;4994671;28;20018;-76
2021/01/30 02:34:44;;;;;;;52.58;22.58;;;-5.70;99.90;;;;;;5012169;28;20488;-77
2021/01/30 02:37:23;;;;;;;45.35;21.48;;;-5.70;99.90;;;;;;4996534;28;20026;-87
2021/01/30 02:39:52;;;;;;;48.10;22.48;;;-5.70;99.90;;;;;;5014404;28;20030;-89
2021/01/30 02:42:29;;;;;;;48.85;23.10;;;-5.70;99.90;;;;;;5013916;28;20026;-89
2021/01/30 02:45:22;;;;;;;49.95;23.38;;;-5.80;99.90;;;;;;4996049;28;20072;-86
2021/01/30 02:48:01;;;;;;;57.45;25.60;;;-5.80;99.90;;;;;;4995044;28;20480;-87
2021/01/30 02:50:35;;;;;;;63.03;27.58;;;-5.80;99.90;;;;;;5013755;28;20037;-87
2021/01/30 02:53:04;;;;;;;69.47;29.25;;;-5.80;99.90;;;;;;4995523;28;20594;-88
2021/01/30 02:55:32;;;;;;;68.15;30.20;;;-5.80;99.90;;;;;;5014149;28;20053;-87
2021/01/30 02:57:59;;;;;;;74.72;33.65;;;-5.80;99.90;;;;;;5014163;28;20147;-87
2021/01/30 03:00:26;;;;;;;80.30;35.05;;;-5.80;99.90;;;;;;4996462;28;20361;-86
2021/01/30 03:02:53;;;;;;;83.40;37.42;;;-5.80;99.90;;;;;;5017603;28;20030;-87
2021/01/30 03:05:20;;;;;;;84.05;36.88;;;-5.80;99.90;;;;;;5016897;28;20030;-88
2021/01/30 03:07:58;;;;;;;80.18;33.50;;;-5.80;99.90;;;;;;4999704;28;20428;-87
2021/01/30 03:10:41;;;;;;;72.45;31.33;;;-5.80;99.90;;;;;;5018145;28;20033;-88
2021/01/30 03:13:28;;;;;;;64.57;30.30;;;-5.80;99.90;;;;;;5017756;28;20029;-88
2021/01/30 03:16:13;;;;;;;67.00;31.05;;;-5.70;99.90;;;;;;5017742;28;20045;-88
2021/01/30 03:18:46;;;;;;;64.55;27.98;;;-5.70;99.90;;;;;;5017708;28;20037;-88
2021/01/30 03:21:16;;;;;;;65.15;28.95;;;-5.70;99.90;;;;;;5017717;28;20037;-87
2021/01/30 03:23:41;;;;;;;66.30;28.48;;;-5.70;99.90;;;;;;5000106;28;20117;-88
2021/01/30 03:26:13;;;;;;;63.35;28.83;;;-5.70;99.90;;;;;;4999806;28;20586;-88
2021/01/30 03:28:40;;;;;;;60.95;28.10;;;-5.70;99.90;;;;;;5000170;28;20523;-89
2021/01/30 03:31:06;;;;;;;57.08;26.08;;;-5.70;99.90;;;;;;5017630;28;20540;-88
2021/01/30 03:33:32;;;;;;;59.13;26.88;;;-5.70;99.90;;;;;;5017403;28;20060;-87
2021/01/30 03:35:57;;;;;;;51.72;25.27;;;-5.60;99.90;;;;;;5017513;28;20033;-87
2021/01/30 03:38:23;;;;;;;51.03;23.90;;;-5.60;99.90;;;;;;4999551;28;20449;-88
2021/01/30 03:40:49;;;;;;;54.08;25.02;;;-5.60;99.90;;;;;;5016983;28;20476;-88
2021/01/30 03:43:15;;;;;;;52.08;22.95;;;-5.60;99.90;;;;;;4999483;28;20531;-87
2021/01/30 03:45:41;;;;;;;53.15;25.15;;;-5.50;99.90;;;;;;5017013;28;20461;-76
2021/01/30 03:48:08;;;;;;;49.88;22.77;;;-5.50;99.90;;;;;;5015271;28;20034;-77
2021/01/30 03:50:34;;;;;;;48.63;23.45;;;-5.50;99.90;;;;;;4999570;28;20387;-89
2021/01/30 03:53:04;;;;;;;48.60;22.52;;;-5.50;99.90;;;;;;5017413;28;20034;-89
2021/01/30 03:55:29;;;;;;;52.95;25.10;;;-5.50;99.90;;;;;;5017526;28;20081;-89
2021/01/30 03:57:55;;;;;;;47.75;22.85;;;-5.50;99.90;;;;;;4999438;28;20053;-89
2021/01/30 04:00:23;;;;;;;50.65;22.17;;;-5.50;99.90;;;;;;5017108;28;20037;-90
2021/01/30 04:02:50;;;;;;;49.83;23.08;;;-5.50;99.90;;;;;;4999469;28;20033;-89
2021/01/30 04:05:23;;;;;;;55.33;24.85;;;-5.40;99.90;;;;;;5015865;28;20105;-88
2021/01/30 04:07:50;;;;;;;55.25;24.55;;;-5.50;99.90;;;;;;5016784;28;20025;-88
2021/01/30 04:10:26;;;;;;;53.40;24.60;;;-5.50;99.90;;;;;;5016072;28;20053;-88
2021/01/30 04:12:52;;;;;;;54.30;25.05;;;-5.50;99.90;;;;;;5015065;28;20025;-77
2021/01/30 04:15:26;;;;;;;54.83;25.65;;;-5.50;99.90;;;;;;5015211;28;20550;-76
2021/01/30 04:17:52;;;;;;;57.28;25.58;;;-5.50;99.90;;;;;;4998091;28;20029;-77
2021/01/30 04:20:18;;;;;;;53.22;25.20;;;-5.50;99.90;;;;;;5014479;28;20473;-77
2021/01/30 04:22:44;;;;;;;57.65;26.58;;;-5.60;99.90;;;;;;5014861;28;20044;-77
2021/01/30 04:25:13;;;;;;;62.35;28.15;;;-5.60;99.90;;;;;;5014837;28;20029;-76
2021/01/30 04:27:38;;;;;;;63.63;29.83;;;-5.60;99.90;;;;;;4996667;28;20022;-76
2021/01/30 04:30:06;;;;;;;71.53;31.45;;;-5.60;99.90;;;;;;4996995;28;20111;-76
2021/01/30 04:32:32;;;;;;;68.03;31.40;;;-5.60;99.90;;;;;;5014487;28;20060;-76
2021/01/30 04:34:57;;;;;;;69.63;31.00;;;-5.60;99.90;;;;;;4996841;28;20796;-77
2021/01/30 04:37:23;;;;;;;66.13;32.35;;;-5.70;99.90;;;;;;5014442;28;20084;-76
2021/01/30 04:39:49;;;;;;;69.55;31.17;;;-5.70;99.90;;;;;;5014299;28;20423;-76
2021/01/30 04:42:35;;;;;;;70.38;31.50;;;-5.70;99.90;;;;;;4996600;28;20384;-76
2021/01/30 04:45:14;;;;;;;65.97;32.17;;;-5.70;99.90;;;;;;5014218;28;20061;-76
2021/01/30 04:48:13;;;;;;;67.18;31.17;;;-5.70;99.90;;;;;;5014093;28;20026;-76
2021/01/30 04:50:49;;;;;;;68.75;31.75;;;-5.70;99.90;;;;;;5014047;28;20018;-77
2021/01/30 04:53:20;;;;;;;75.25;32.38;;;-5.70;99.90;;;;;;4996700;28;20033;-76
2021/01/30 04:56:04;;;;;;;74.72;33.13;;;-5.70;99.90;;;;;;5013890;28;20033;-76
2021/01/30 04:58:50;;;;;;;81.30;34.92;;;-5.60;99.90;;;;;;5013766;28;20054;-77
2021/01/30 05:01:24;;;;;;;85.57;35.95;;;-5.60;99.90;;;;;;4996284;28;20103;-77
2021/01/30 05:04:07;;;;;;;75.75;34.65;;;-5.60;99.90;;;;;;5013777;28;20080;-77
2021/01/30 05:06:41;;;;;;;83.28;37.00;;;-5.50;99.90;;;;;;5013578;28;20061;-77
2021/01/30 05:09:13;;;;;;;79.13;35.45;;;-5.50;99.90;;;;;;5013870;28;20109;-77
2021/01/30 05:11:43;;;;;;;86.30;37.88;;;-5.50;99.90;;;;;;4996563;28;20067;-77
2021/01/30 05:14:16;;;;;;;74.40;33.70;;;-5.40;99.90;;;;;;5013526;28;20109;-77
2021/01/30 05:17:01;;;;;;;68.43;32.05;;;-5.40;99.90;;;;;;5013936;28;20476;-77
2021/01/30 05:19:33;;;;;;;83.70;40.03;;;-5.30;99.90;;;;;;4996005;28;20084;-78
2021/01/30 05:22:01;;;;;;;75.85;33.42;;;-5.30;99.90;;;;;;5013215;28;20427;-77
2021/01/30 05:24:29;;;;;;;70.35;31.00;;;-5.20;99.90;;;;;;5012944;28;20108;-77
2021/01/30 05:27:09;;;;;;;68.65;30.95;;;-5.20;99.90;;;;;;4997130;28;20079;-92
2021/01/30 05:29:41;;;;;;;68.45;29.67;;;-5.20;99.90;;;;;;5013333;28;20041;-78
2021/01/30 05:32:30;;;;;;;66.25;31.98;;;-5.10;99.90;;;;;;4995380;28;20388;-77
2021/01/30 05:35:34;;;;;;;69.28;30.63;;;-5.10;99.90;;;;;;5008047;28;20068;-89
2021/01/30 05:38:09;;;;;;;60.88;28.10;;;-5.00;99.90;;;;;;5015033;28;20380;-88
2021/01/30 05:40:41;;;;;;;59.03;27.58;;;-5.00;99.90;;;;;;5014799;28;20022;-89
2021/01/30 05:43:31;;;;;;;64.03;28.85;;;-5.00;99.90;;;;;;5014824;28;20084;-88
2021/01/30 05:45:59;;;;;;;57.80;27.70;;;-4.90;99.90;;;;;;4997198;28;20492;-88
2021/01/30 05:48:26;;;;;;;54.25;25.95;;;-4.90;99.90;;;;;;5014930;28;20025;-89
2021/01/30 05:50:59;;;;;;;48.92;22.83;;;-4.80;99.90;;;;;;4997042;28;20022;-86
2021/01/30 05:53:25;;;;;;;;;;;-4.80;99.90;;;;;;5015126;28;20033;-90
2021/01/30 05:55:53;;;;;;;42.00;20.77;;;-4.70;99.90;;;;;;5014261;28;20311;-89
2021/01/30 05:58:22;;;;;;;41.22;20.35;;;-4.70;99.90;;;;;;5014628;28;20400;-88
2021/01/30 06:00:48;;;;;;;44.35;21.13;;;-4.60;99.90;;;;;;5015913;28;20037;-87
2021/01/30 06:03:19;;;;;;;39.15;20.33;;;-4.50;99.90;;;;;;5014911;28;20037;-88
2021/01/30 06:05:46;;;;;;;41.97;20.02;;;-4.40;99.90;;;;;;5014916;28;20026;-89
2021/01/30 06:08:23;;;;;;;44.53;21.02;;;-4.40;99.90;;;;;;4996760;28;20388;-88
2021/01/30 06:11:12;;;;;;;39.78;17.88;;;-4.30;99.90;;;;;;5014249;28;20024;-89
2021/01/30 06:13:55;;;;;;;39.50;19.48;;;-4.20;99.90;;;;;;5014628;28;20041;-88
2021/01/30 06:16:44;;;;;;;37.22;18.55;;;-4.10;99.90;;;;;;5014133;28;20029;-89
2021/01/30 06:19:14;;;;;;;42.63;20.40;;;-4.00;99.90;;;;;;4996286;28;20030;-87
2021/01/30 06:21:42;;;;;;;34.88;18.90;;;-3.90;99.90;;;;;;4996585;28;20029;-89
2021/01/30 06:24:10;;;;;;;39.25;21.02;;;-3.80;99.90;;;;;;4996580;28;20036;-88
2021/01/30 06:26:48;;;;;;;43.70;20.35;;;-3.70;99.90;;;;;;5013959;28;20018;-89
2021/01/30 06:29:43;;;;;;;40.58;20.85;;;-3.60;99.90;;;;;;4996022;28;20484;-89
2021/01/30 06:32:18;;;;;;;43.30;20.85;;;-3.50;99.90;;;;;;5014208;28;20476;-90
2021/01/30 06:34:46;;;;;;;37.65;19.90;;;-3.30;99.90;;;;;;4996042;28;20017;-90
2021/01/30 06:37:28;;;;;;;40.72;20.45;;;-3.20;99.90;;;;;;5013112;28;20022;-90
2021/01/30 06:40:13;;;;;;;48.58;23.95;;;-3.10;99.90;;;;;;5013481;28;20041;-90
2021/01/30 06:42:41;;;;;;;51.65;26.30;;;-3.00;99.90;;;;;;5014200;28;20361;-89
2021/01/30 06:45:09;;;;;;;73.22;33.55;;;-3.00;99.90;;;;;;5014033;28;20025;-89
2021/01/30 06:47:50;;;;;;;50.55;25.10;;;-3.00;99.90;;;;;;4996575;28;20044;-89
2021/01/30 06:50:22;;;;;;;68.00;30.55;;;-2.90;99.90;;;;;;5014160;28;20495;-91
2021/01/30 06:52:48;;;;;;;48.67;25.90;;;-2.90;99.90;;;;;;5013762;28;20026;-89
2021/01/30 06:55:14;;;;;;;53.30;25.23;;;-2.80;99.90;;;;;;5013261;28;20037;-90
2021/01/30 06:58:01;;;;;;;64.88;31.67;;;-2.80;99.90;;;;;;5013181;28;20072;-89
2021/01/30 07:00:34;;;;;;;85.35;37.28;;;-2.80;99.90;;;;;;5014520;28;20096;-89
2021/01/30 07:03:09;;;;;;;111.60;48.05;;;-2.70;99.90;;;;;;5014233;28;20022;-89
2021/01/30 07:06:06;;;;;;;88.15;41.15;;;-2.70;99.90;;;;;;4994839;28;20420;-79
2021/01/30 07:09:05;;;;;;;87.82;41.13;;;-2.70;99.90;;;;;;5011518;28;20033;-76
2021/01/30 07:12:06;;;;;;;96.88;44.60;;;-2.70;99.90;;;;;;5012374;28;20022;-81
2021/01/30 07:14:59;;;;;;;91.78;44.00;;;-2.70;99.90;;;;;;5011669;28;20029;-80
2021/01/30 07:17:47;;;;;;;101.25;46.25;;;-2.70;99.90;;;;;;4993228;28;20022;-77
2021/01/30 07:20:34;;;;;;;102.28;46.05;;;-2.60;99.90;;;;;;5010606;28;20030;-77
2021/01/30 07:23:06;;;;;;;114.63;54.05;;;-2.50;99.90;;;;;;5010667;28;20033;-78
2021/01/30 07:25:49;;;;;;;114.68;56.90;;;-2.40;99.90;;;;;;4992637;28;20022;-78
2021/01/30 07:28:40;;;;;;;103.90;50.03;;;-2.20;99.90;;;;;;5010950;28;20022;-77
2021/01/30 07:31:09;;;;;;;97.32;46.28;;;-2.10;99.90;;;;;;5010550;28;20088;-78
2021/01/30 07:33:54;;;;;;;95.60;46.97;;;-1.90;99.90;;;;;;4992578;28;20026;-78
2021/01/30 07:36:23;;;;;;;98.32;48.40;;;-1.70;99.90;;;;;;4992536;28;20376;-77
2021/01/30 07:38:56;;;;;;;81.47;39.25;;;-1.50;99.90;;;;;;5010812;28;20072;-77
2021/01/30 07:41:41;;;;;;;77.10;36.33;;;-1.40;99.90;;;;;;5010540;28;20021;-77
2021/01/30 07:44:32;;;;;;;72.75;33.28;;;-1.30;99.90;;;;;;5011957;28;20556;-80
2021/01/30 07:47:10;;;;;;;57.90;27.88;;;-1.20;99.90;;;;;;5010961;28;20022;-78
2021/01/30 07:49:40;;;;;;;55.53;27.63;;;-1.10;99.90;;;;;;5014712;28;20045;-81
2021/01/30 07:52:13;;;;;;;59.47;28.00;;;-1.10;99.90;;;;;;5014710;28;20026;-80
2021/01/30 07:54:46;;;;;;;53.58;25.48;;;-1.10;99.90;;;;;;5014513;28;20022;-79
2021/01/30 07:57:15;;;;;;;51.95;24.45;;;-1.10;99.90;;;;;;4996409;28;20477;-81
2021/01/30 08:00:01;;;;;;;48.67;22.63;;;-1.00;99.90;;;;;;5015132;28;20362;-81
2021/01/30 08:02:45;;;;;;;44.38;21.17;;;-1.00;99.90;;;;;;5015724;28;20034;-82
2021/01/30 08:05:51;;;;;;;40.35;21.10;;;-0.90;99.90;;;;;;5014442;28;20416;-82
2021/01/30 08:08:36;;;;;;;34.67;19.35;;;-0.80;99.90;;;;;;4997250;28;20049;-83
2021/01/30 08:11:28;;;;;;;33.50;18.02;;;-0.70;99.90;;;;;;4997168;28;20384;-88
2021/01/30 08:13:59;;;;;;;39.47;17.65;;;-0.60;99.90;;;;;;5014964;28;20024;-82
2021/01/30 08:16:43;;;;;;;35.65;18.38;;;-0.50;99.90;;;;;;4995819;28;20044;-81
2021/01/30 08:19:29;;;;;;;32.97;18.15;;;-0.50;99.90;;;;;;4996070;28;20042;-80
2021/01/30 08:22:03;;;;;;;36.63;18.17;;;-0.50;99.90;;;;;;4995750;28;20112;-78
2021/01/30 08:24:45;;;;;;;34.85;18.50;;;-0.40;99.90;;;;;;4995624;28;20105;-78
2021/01/30 08:27:19;;;;;;;43.60;20.77;;;-0.40;99.90;;;;;;4995599;28;20390;-78
2021/01/30 08:29:52;;;;;;;35.15;16.75;;;-0.30;99.90;;;;;;5013374;28;20441;-78
2021/01/30 08:32:23;;;;;;;39.30;17.48;;;-0.20;99.90;;;;;;5012917;28;20087;-78
2021/01/30 08:34:50;;;;;;;31.25;17.30;;;-0.20;99.90;;;;;;4995125;28;20022;-77
2021/01/30 08:37:16;;;;;;;29.33;15.43;;;-0.10;99.90;;;;;;5012932;28;20116;-78
2021/01/30 08:40:10;;;;;;;43.25;21.20;;;-0.10;99.90;;;;;;5013217;28;20109;-82
2021/01/30 08:42:58;;;;;;;41.55;21.27;;;-0.10;99.90;;;;;;5013393;28;20034;-82
2021/01/30 08:45:32;;;;;;;48.97;23.38;;;-0.10;99.90;;;;;;4988798;28;20069;-82
2021/01/30 08:48:17;;;;;;;46.40;24.92;;;0.00;99.90;;;;;;5013917;28;20030;-82
2021/01/30 08:50:50;;;;;;;54.70;28.90;;;0.10;99.90;;;;;;5013640;28;20037;-81
2021/01/30 08:53:24;;;;;;;57.88;33.38;;;0.10;99.90;;;;;;5013783;28;20038;-81
2021/01/30 08:56:04;;;;;;;60.13;35.15;;;0.00;99.90;;;;;;5013086;28;20026;-80
2021/01/30 08:58:36;;;;;;;62.70;36.03;;;0.10;99.90;;;;;;5012410;28;20046;-80
2021/01/30 09:01:22;;;;;;;68.97;37.08;;;0.20;99.90;;;;;;5013226;28;20030;-82
2021/01/30 09:03:58;;;;;;;67.97;35.78;;;0.30;99.90;;;;;;4971466;28;20058;-80
2021/01/30 09:06:39;;;;;;;67.60;34.05;;;0.40;99.90;;;;;;4971337;28;20031;-81
2021/01/30 09:09:09;;;;;;;62.75;33.65;;;0.40;99.90;;;;;;4957699;28;20027;-79
2021/01/30 09:11:48;;;;;;;58.83;31.40;;;0.50;99.90;;;;;;4971215;28;20018;-79
2021/01/30 09:14:19;;;;;;;58.35;29.42;;;0.60;99.90;;;;;;4972047;28;20101;-81
2021/01/30 09:16:57;;;;;;;63.53;31.20;;;0.50;99.90;;;;;;4971695;28;20042;-81
2021/01/30 09:19:59;;;;;;;55.20;29.45;;;0.50;99.90;;;;;;4971591;28;20043;-81
2021/01/30 09:23:01;;;;;;;51.58;27.20;;;0.40;99.90;;;;;;4972050;28;20030;-80
2021/01/30 09:25:41;;;;;;;54.10;31.07;;;0.50;99.90;;;;;;4972107;28;20038;-80
2021/01/30 09:28:20;;;;;;;49.92;27.30;;;0.50;99.90;;;;;;4975132;28;20023;-89
2021/01/30 09:30:55;;;;;;;54.03;31.85;;;0.50;99.90;;;;;;4975681;28;20022;-89
2021/01/30 09:33:26;;;;;;;63.65;33.28;;;0.40;99.90;;;;;;4961041;28;20023;-88
2021/01/30 09:36:00;;;;;;;60.13;31.80;;;0.40;99.90;;;;;;5016144;28;20539;-88
2021/01/30 09:38:32;;;;;;;63.25;34.33;;;0.50;99.90;;;;;;4998751;28;20058;-87
2021/01/30 09:41:25;;;;;;;72.35;40.95;;;0.50;99.90;;;;;;5019502;28;20025;-88
2021/01/30 09:44:16;;;;;;;85.03;43.90;;;0.50;99.90;;;;;;5007508;28;20476;-88
2021/01/30 09:46:45;;;;;;;83.93;46.30;;;0.50;99.90;;;;;;5024193;28;20026;-88
2021/01/30 09:49:27;;;;;;;81.93;47.33;;;0.50;99.90;;;;;;4997854;28;20425;-89
2021/01/30 09:51:55;;;;;;;85.00;47.42;;;0.50;99.90;;;;;;5015399;28;20030;-89
2021/01/30 09:54:24;;;;;;;90.13;46.38;;;0.60;99.90;;;;;;5015323;28;20449;-87
2021/01/30 09:56:50;;;;;;;111.00;53.10;;;0.50;99.90;;;;;;4996866;28;20048;-87
2021/01/30 09:59:25;;;;;;;107.25;48.25;;;0.60;99.90;;;;;;5016825;28;20061;-88
2021/01/30 10:01:51;;;;;;;118.20;52.55;;;0.60;99.90;;;;;;5019608;28;20018;-88
2021/01/30 10:04:22;;;;;;;102.70;43.03;;;0.60;99.90;;;;;;5036202;28;20173;-86
2021/01/30 10:06:51;;;;;;;85.57;39.07;;;0.70;99.90;;;;;;5036722;28;20056;-87
2021/01/30 10:09:22;;;;;;;82.32;39.60;;;0.60;99.90;;;;;;5036363;28;20284;-88
2021/01/30 10:11:55;;;;;;;72.83;32.30;;;0.60;99.90;;;;;;5036369;28;20020;-88
2021/01/30 10:14:23;;;;;;;71.47;34.58;;;0.60;99.90;;;;;;5036160;28;20106;-88
2021/01/30 10:17:21;;;;;;;71.25;34.55;;;0.60;99.90;;;;;;5036193;28;20053;-90
2021/01/30 10:19:55;;;;;;;70.45;34.72;;;0.50;99.90;;;;;;5035304;28;20093;-89
2021/01/30 10:22:22;;;;;;;67.53;34.30;;;0.50;99.90;;;;;;5015497;28;20029;-90
2021/01/30 10:24:52;;;;;;;68.63;34.47;;;0.40;99.90;;;;;;4996798;28;20380;-90
2021/01/30 10:27:25;;;;;;;90.05;45.22;;;0.30;99.90;;;;;;5014426;28;20072;-90
2021/01/30 10:29:52;;;;;;;55.47;27.98;;;0.30;99.90;;;;;;5014281;28;20174;-89
2021/01/30 10:32:39;;;;;;;55.85;29.27;;;0.30;99.90;;;;;;5013532;28;20033;-88
2021/01/30 10:35:11;;;;;;;60.05;30.88;;;0.30;99.90;;;;;;5013710;28;20029;-89
2021/01/30 10:37:51;;;;;;;56.95;30.65;;;0.30;99.90;;;;;;4996268;28;20037;-89
2021/01/30 10:40:32;;;;;;;65.47;34.70;;;0.20;99.90;;;;;;5013740;28;20034;-89
2021/01/30 10:43:07;;;;;;;76.05;40.75;;;0.30;99.90;;;;;;4996663;28;20034;-88
2021/01/30 10:45:44;;;;;;;89.90;47.45;;;0.30;99.90;;;;;;5013835;28;20036;-88
2021/01/30 10:48:15;;;;;;;85.93;44.15;;;0.30;99.90;;;;;;5014266;28;20045;-89
2021/01/30 10:50:44;;;;;;;92.45;49.88;;;0.40;99.90;;;;;;4996120;28;20042;-88
2021/01/30 10:53:23;;;;;;;82.55;42.50;;;0.40;99.90;;;;;;4996373;28;20030;-89
2021/01/30 10:55:50;;;;;;;94.07;47.42;;;0.50;99.90;;;;;;5014407;28;20068;-88
2021/01/30 10:58:32;;;;;;;102.25;49.25;;;0.50;99.90;;;;;;4996543;28;20046;-89
2021/01/30 11:01:05;;;;;;;86.93;45.83;;;0.50;99.90;;;;;;5013950;28;20408;-88
2021/01/30 11:03:46;;;;;;;96.97;47.72;;;0.50;99.90;;;;;;4997036;28;20033;-90
2021/01/30 11:06:34;;;;;;;85.78;47.05;;;0.50;99.90;;;;;;4996547;28;20076;-89
2021/01/30 11:09:10;;;;;;;90.55;45.50;;;0.50;99.90;;;;;;5014523;28;20101;-89
2021/01/30 11:11:37;;;;;;;93.88;45.20;;;0.50;99.90;;;;;;4996302;28;20354;-89
2021/01/30 11:14:22;;;;;;;83.10;44.72;;;0.50;99.90;;;;;;4996602;28;20523;-88
2021/01/30 11:16:48;;;;;;;80.18;39.83;;;0.50;99.90;;;;;;5014697;28;20045;-91
2021/01/30 11:19:20;;;;;;;70.72;35.50;;;0.50;99.90;;;;;;5014338;28;20030;-90
2021/01/30 11:21:47;;;;;;;70.45;38.50;;;0.50;99.90;;;;;;5012903;28;20025;-81
2021/01/30 11:24:46;;;;;;;84.82;41.35;;;0.50;99.90;;;;;;5015772;28;20037;-81
2021/01/30 11:27:32;;;;;;;78.03;40.60;;;0.50;99.90;;;;;;5015685;28;20472;-83
2021/01/30 11:29:58;;;;;;;91.15;44.88;;;0.60;99.90;;;;;;5007518;28;20030;-81
2021/01/30 11:32:26;;;;;;;89.75;43.17;;;0.60;99.90;;;;;;5015542;28;20098;-81
2021/01/30 11:34:59;;;;;;;88.30;44.15;;;0.60;99.90;;;;;;5014956;28;20096;-80
2021/01/30 11:37:26;;;;;;;83.30;41.53;;;0.60;99.90;;;;;;5015152;28;20057;-81
2021/01/30 11:39:52;;;;;;;76.75;39.13;;;0.60;99.90;;;;;;5015050;28;20100;-82
2021/01/30 11:42:18;;;;;;;79.40;40.83;;;0.70;99.90;;;;;;5015259;28;20030;-81
2021/01/30 11:44:43;;;;;;;76.53;40.78;;;0.70;99.90;;;;;;5014937;28;20026;-81
2021/01/30 11:47:11;;;;;;;76.63;38.78;;;0.70;99.90;;;;;;4997559;28;20033;-82
2021/01/30 11:49:37;;;;;;;75.43;37.85;;;0.70;99.90;;;;;;4997192;28;20021;-80
2021/01/30 11:52:03;;;;;;;80.05;39.75;;;0.70;99.90;;;;;;5015209;28;20097;-83
2021/01/30 11:54:29;;;;;;;78.40;39.58;;;0.80;99.90;;;;;;4997440;28;20033;-81
2021/01/30 11:56:54;;;;;;;72.53;37.30;;;0.80;99.90;;;;;;5015194;28;20045;-85
2021/01/30 11:59:20;;;;;;;75.13;38.92;;;0.80;99.90;;;;;;4999212;28;20022;-83
2021/01/30 12:01:46;;;;;;;75.38;36.50;;;0.80;99.90;;;;;;5019156;28;20041;-82
2021/01/30 12:04:12;;;;;;;76.68;38.85;;;0.80;99.90;;;;;;4998077;28;20033;-83
2021/01/30 12:06:39;;;;;;;80.32;39.83;;;0.80;99.90;;;;;;5015508;28;20030;-83
2021/01/30 12:09:05;;;;;;;75.38;40.83;;;0.80;99.90;;;;;;4998289;28;20022;-85
2021/01/30 12:11:31;;;;;;;74.03;38.47;;;0.80;99.90;;;;;;5016036;28;20041;-84
2021/01/30 12:13:57;;;;;;;79.15;39.45;;;0.80;99.90;;;;;;4998339;28;20022;-86
2021/01/30 12:16:25;;;;;;;85.00;46.58;;;0.80;99.90;;;;;;5016384;28;20022;-84
2021/01/30 12:18:51;;;;;;;105.85;52.72;;;0.80;99.90;;;;;;5016252;28;20084;-85
2021/01/30 12:21:17;;;;;;;104.38;52.20;;;0.70;99.90;;;;;;4997575;28;20034;-84
2021/01/30 12:23:43;;;;;;;118.32;60.13;;;0.80;99.90;;;;;;5016146;28;20410;-85
2021/01/30 12:26:10;;;;;;;93.53;47.53;;;0.80;99.90;;;;;;4997196;28;20109;-85
2021/01/30 12:28:36;;;;;;;98.97;48.08;;;0.80;99.90;;;;;;5014034;28;20084;-82
2021/01/30 12:31:04;;;;;;;102.32;52.28;;;0.80;99.90;;;;;;5015331;28;20025;-83
2021/01/30 12:33:30;;;;;;;104.60;53.85;;;0.90;99.90;;;;;;5014954;28;20037;-82
2021/01/30 12:35:56;;;;;;;99.68;49.55;;;0.90;99.90;;;;;;4997340;28;20036;-86
2021/01/30 12:38:23;;;;;;;107.65;51.67;;;0.90;99.90;;;;;;5014673;28;20112;-85
2021/01/30 12:40:50;;;;;;;99.18;48.83;;;0.90;99.90;;;;;;5015781;28;20026;-85
2021/01/30 12:43:19;;;;;;;111.97;55.10;;;0.90;99.90;;;;;;5014974;28;20026;-85
2021/01/30 12:45:46;;;;;;;111.38;57.90;;;0.90;99.90;;;;;;5014945;28;20030;-84
2021/01/30 12:48:12;;;;;;;118.30;58.47;;;0.90;99.90;;;;;;5015123;28;20425;-83
2021/01/30 12:50:38;;;;;;;125.43;63.05;;;0.90;99.90;;;;;;5014685;28;20029;-85
2021/01/30 12:53:06;;;;;;;115.00;55.72;;;1.00;99.90;;;;;;5015357;28;20028;-86
2021/01/30 12:55:32;;;;;;;121.65;59.25;;;1.00;99.90;;;;;;5014950;28;20440;-83
2021/01/30 12:57:58;;;;;;;122.70;60.20;;;1.00;99.90;;;;;;4997585;28;20077;-87
2021/01/30 13:00:26;;;;;;;100.30;48.33;;;0.90;99.90;;;;;;5014883;28;20026;-84
2021/01/30 13:02:52;;;;;;;101.88;49.20;;;1.00;99.90;;;;;;5015024;28;20041;-83